createdAt,value
2022-12-29T00:02:37.251Z,99607.22
2022-12-29T00:07:38.913Z,99580.09
2022-12-29T00:12:59.125Z,99578.66
2022-12-29T00:18:00.841Z,99580.03
2022-12-29T00:23:21.113Z,99582.88
2022-12-29T00:28:41.075Z,99594.59
2022-12-29T00:34:01.083Z,99555.00
2022-12-29T00:39:24.146Z,99555.19
2022-12-29T00:44:25.750Z,99564.88
2022-12-29T00:49:33.345Z,99562.91
2022-12-29T00:54:37.946Z,99556.88
2022-12-29T00:59:41.149Z,99545.47
2022-12-29T01:04:42.815Z,99538.28
2022-12-29T01:10:02.853Z,99543.00
2022-12-29T01:15:05.001Z,99539.63
2022-12-29T01:20:07.406Z,99539.28
2022-12-29T01:25:10.436Z,99548.34
2022-12-29T01:30:13.682Z,99544.50
2022-12-29T01:35:15.919Z,99534.44
2022-12-29T01:40:20.169Z,99541.13
2022-12-29T01:45:22.019Z,99549.00
2022-12-29T01:50:32.717Z,99541.66
2022-12-29T01:55:49.443Z,99534.44
2022-12-29T02:00:51.369Z,99531.59
2022-12-29T02:05:59.049Z,99514.69
2022-12-29T02:11:01.859Z,99508.50
2022-12-29T02:16:06.185Z,99497.13
2022-12-29T02:21:16.611Z,99510.34
2022-12-29T02:26:27.919Z,99506.31
2022-12-29T02:31:36.446Z,99488.56
2022-12-29T02:36:46.169Z,99486.75
2022-12-29T02:42:04.380Z,99479.50
2022-12-29T02:47:17.715Z,99476.47
2022-12-29T02:52:26.604Z,99474.13
2022-12-29T02:57:35.040Z,99464.56
2022-12-29T03:02:40.258Z,99468.28
2022-12-29T03:07:48.295Z,99472.06
2022-12-29T03:13:38.865Z,99474.75
2022-12-29T03:19:03.645Z,99465.19
2022-12-29T03:24:05.800Z,99471.53
2022-12-29T03:29:08.957Z,99457.13
2022-12-29T03:34:12.182Z,99436.53
2022-12-29T03:39:15.758Z,99445.19
2022-12-29T03:44:17.318Z,99444.31
2022-12-29T03:49:18.980Z,99443.13
2022-12-29T03:54:20.715Z,99435.09
2022-12-29T03:59:22.473Z,99443.38
2022-12-29T04:04:24.767Z,99433.84
2022-12-29T04:09:26.766Z,99435.72
2022-12-29T04:14:28.385Z,99438.84
2022-12-29T04:19:31.201Z,99433.63
2022-12-29T04:24:32.865Z,99419.38
2022-12-29T04:29:35.015Z,99418.84
2022-12-29T04:34:58.977Z,99436.63
2022-12-29T04:40:00.724Z,99434.56
2022-12-29T04:45:03.132Z,99430.50
2022-12-29T04:50:27.321Z,99427.91
2022-12-29T04:55:51.338Z,99432.19
2022-12-29T05:00:53.226Z,99447.44
2022-12-29T05:05:58.378Z,99433.25
2022-12-29T05:11:00.193Z,99439.31
2022-12-29T05:16:02.361Z,99447.75
2022-12-29T05:21:04.210Z,99443.38
2022-12-29T05:26:05.908Z,99437.84
2022-12-29T05:31:18.667Z,99439.69
2022-12-29T05:36:20.732Z,99441.38
2022-12-29T05:41:25.923Z,99448.38
2022-12-29T05:46:48.278Z,99451.41
2022-12-29T05:52:16.099Z,99438.31
2022-12-29T05:57:19.008Z,99442.97
2022-12-29T06:02:25.831Z,99443.63
2022-12-29T06:07:28.712Z,99452.69
2022-12-29T06:12:30.347Z,99457.69
2022-12-29T06:17:32.072Z,99456.50
2022-12-29T06:22:33.871Z,99450.78
2022-12-29T06:27:36.494Z,99456.84
2022-12-29T06:32:38.251Z,99443.91
2022-12-29T06:37:42.925Z,99432.53
2022-12-29T06:42:44.575Z,99434.88
2022-12-29T06:48:24.472Z,99432.81
2022-12-29T06:53:26.063Z,99439.41
2022-12-29T06:58:27.659Z,99441.47
2022-12-29T07:03:29.290Z,99445.69
2022-12-29T07:08:30.958Z,99447.34
2022-12-29T07:13:32.545Z,99439.31
2022-12-29T07:18:34.346Z,99444.34
2022-12-29T07:23:35.942Z,99458.09
2022-12-29T07:28:38.951Z,99452.69
2022-12-29T07:33:40.500Z,99465.78
2022-12-29T07:38:42.999Z,99469.25
2022-12-29T07:43:48.669Z,99440.41
2022-12-29T07:49:19.127Z,99449.63
2022-12-29T07:54:20.799Z,99447.91
2022-12-29T07:59:22.571Z,99457.63
2022-12-29T08:04:24.289Z,99450.50
2022-12-29T08:09:25.952Z,99460.34
2022-12-29T08:14:27.633Z,99475.47
2022-12-29T08:19:29.184Z,99488.34
2022-12-29T08:24:30.756Z,99493.84
2022-12-29T08:29:32.367Z,99500.22
2022-12-29T08:34:33.969Z,99494.31
2022-12-29T08:39:35.968Z,99487.03
2022-12-29T08:44:37.804Z,99480.97
2022-12-29T08:49:39.382Z,99481.03
2022-12-29T08:54:41.110Z,99488.72
2022-12-29T08:59:43.561Z,99483.53
2022-12-29T09:04:46.482Z,99486.72
2022-12-29T09:09:48.106Z,99456.66
2022-12-29T09:14:49.760Z,99465.84
2022-12-29T09:19:51.586Z,99465.84
2022-12-29T09:24:53.229Z,99460.47
2022-12-29T09:29:54.933Z,99466.78
2022-12-29T09:34:56.617Z,99457.59
2022-12-29T09:39:58.204Z,99477.34
2022-12-29T09:45:09.565Z,99480.47
2022-12-29T09:50:24.227Z,99478.38
2022-12-29T09:55:34.609Z,99472.66
2022-12-29T10:00:54.743Z,99471.75
2022-12-29T10:06:04.598Z,99471.03
2022-12-29T10:11:27.299Z,99465.47
2022-12-29T10:16:46.927Z,99467.78
2022-12-29T10:22:06.597Z,99477.44
2022-12-29T10:27:13.497Z,99478.66
2022-12-29T10:32:33.528Z,99469.50
2022-12-29T10:37:44.243Z,99453.09
2022-12-29T10:42:49.719Z,99462.34
2022-12-29T10:47:53.828Z,99443.00
2022-12-29T10:52:55.675Z,99432.53
2022-12-29T10:58:01.303Z,99431.50
2022-12-29T11:03:11.814Z,99428.53
2022-12-29T11:08:16.876Z,99423.16
2022-12-29T11:13:21.980Z,99424.44
2022-12-29T11:18:31.906Z,99426.47
2022-12-29T11:23:41.975Z,99422.94
2022-12-29T11:28:46.676Z,99420.81
2022-12-29T11:33:48.316Z,99428.97
2022-12-29T11:38:52.862Z,99413.38
2022-12-29T11:43:57.021Z,99407.56
2022-12-29T11:49:01.443Z,99412.41
2022-12-29T11:54:04.711Z,99412.31
2022-12-29T11:59:27.951Z,99408.59
2022-12-29T12:04:36.563Z,99405.66
2022-12-29T12:09:45.270Z,99402.69
2022-12-29T12:15:00.247Z,99408.44
2022-12-29T12:20:34.707Z,99413.81
2022-12-29T12:25:39.700Z,99398.53
2022-12-29T12:30:45.951Z,99399.75
2022-12-29T12:36:06.386Z,99400.28
2022-12-29T12:41:14.396Z,99393.09
2022-12-29T12:46:34.541Z,99384.00
2022-12-29T12:52:05.390Z,99366.00
2022-12-29T12:57:35.342Z,99371.75
2022-12-29T13:02:40.147Z,99356.53
2022-12-29T13:07:53.712Z,99363.63
2022-12-29T13:12:58.303Z,99365.69
2022-12-29T13:18:22.207Z,99370.06
2022-12-29T13:23:42.200Z,99369.03
2022-12-29T13:29:10.211Z,99383.84
2022-12-29T13:34:23.883Z,99382.97
2022-12-29T13:39:38.438Z,99379.81
2022-12-29T13:44:44.907Z,99387.44
2022-12-29T13:49:47.027Z,99387.63
2022-12-29T13:54:54.629Z,99393.22
2022-12-29T14:00:08.477Z,99397.59
2022-12-29T14:05:29.852Z,99395.50
2022-12-29T14:10:40.052Z,99399.03
2022-12-29T14:15:44.819Z,99389.03
2022-12-29T14:20:57.784Z,99403.75
2022-12-29T14:25:59.380Z,99396.09
2022-12-29T14:31:20.270Z,99397.94
2022-12-29T14:36:42.380Z,99406.00
2022-12-29T14:41:43.980Z,99409.28
2022-12-29T14:47:07.705Z,99417.16
2022-12-29T14:52:22.005Z,99414.25
2022-12-29T14:57:50.474Z,99413.19
2022-12-29T15:03:06.678Z,99411.72
2022-12-29T15:08:09.693Z,99412.09
2022-12-29T15:13:18.346Z,99424.69
2022-12-29T15:18:25.435Z,99438.31
2022-12-29T15:23:27.588Z,99443.25
2022-12-29T15:28:44.331Z,99450.22
2022-12-29T15:33:49.428Z,99465.91
2022-12-29T15:38:51.317Z,99485.06
2022-12-29T15:44:18.163Z,99482.81
2022-12-29T15:49:20.951Z,99485.53
2022-12-29T15:54:24.158Z,99507.69
2022-12-29T15:59:31.600Z,99506.47
2022-12-29T16:04:43.288Z,99516.41
2022-12-29T16:09:57.755Z,99536.28
2022-12-29T16:15:01.427Z,99527.47
2022-12-29T16:20:06.664Z,99520.09
2022-12-29T16:25:19.047Z,99524.50
2022-12-29T16:30:32.837Z,99531.91
2022-12-29T16:35:44.490Z,99541.28
2022-12-29T16:41:04.685Z,99544.75
2022-12-29T16:46:29.927Z,99550.69
2022-12-29T16:51:36.618Z,99548.03
2022-12-29T16:56:39.772Z,99569.34
2022-12-29T17:01:41.645Z,99558.31
2022-12-29T17:06:43.372Z,99566.91
2022-12-29T17:12:02.542Z,99571.31
2022-12-29T17:17:19.215Z,99570.69
2022-12-29T17:22:25.679Z,99575.88
2022-12-29T17:27:29.819Z,99571.59
2022-12-29T17:32:31.504Z,99582.47
2022-12-29T17:37:34.655Z,99581.88
2022-12-29T17:42:40.689Z,99579.81
2022-12-29T17:47:42.599Z,99581.88
2022-12-29T17:52:48.542Z,99580.19
2022-12-29T17:57:50.548Z,99586.56
2022-12-29T18:02:52.473Z,99582.91
2022-12-29T18:07:56.073Z,99590.78
2022-12-29T18:13:03.773Z,99580.44
2022-12-29T18:18:12.253Z,99586.88
2022-12-29T18:23:22.398Z,99587.66
2022-12-29T18:28:25.026Z,99588.88
2022-12-29T18:33:27.719Z,99582.13
2022-12-29T18:38:29.953Z,99597.31
2022-12-29T18:43:31.586Z,99598.84
2022-12-29T18:48:33.197Z,99587.81
2022-12-29T18:53:37.574Z,99590.34
2022-12-29T18:58:39.319Z,99583.13
2022-12-29T19:03:40.941Z,99592.72
2022-12-29T19:08:42.626Z,99597.09
2022-12-29T19:13:44.276Z,99589.19
2022-12-29T19:18:53.346Z,99577.97
2022-12-29T19:24:06.140Z,99581.97
2022-12-29T19:29:13.885Z,99577.44
2022-12-29T19:34:16.293Z,99586.53
2022-12-29T19:39:18.073Z,99583.53
2022-12-29T19:44:19.801Z,99591.75
2022-12-29T19:49:21.424Z,99578.03
2022-12-29T19:54:23.026Z,99588.28
2022-12-29T19:59:24.635Z,99574.03
2022-12-29T20:04:26.270Z,99572.03
2022-12-29T20:09:27.884Z,99564.00
2022-12-29T20:14:29.523Z,99561.31
2022-12-29T20:19:31.552Z,99567.38
2022-12-29T20:24:34.489Z,99566.72
2022-12-29T20:29:38.915Z,99570.41
2022-12-29T20:34:40.666Z,99563.22
2022-12-29T20:39:43.554Z,99562.25
2022-12-29T20:44:45.386Z,99575.84
2022-12-29T20:49:47.543Z,99565.81
2022-12-29T20:54:49.114Z,99573.72
2022-12-29T20:59:50.751Z,99590.28
2022-12-29T21:10:14.071Z,99599.66
2022-12-29T21:15:15.845Z,99598.66
2022-12-29T21:20:29.748Z,99611.72
2022-12-29T21:25:38.311Z,99613.38
2022-12-29T21:30:40.282Z,99618.72
2022-12-29T21:35:41.931Z,99634.44
2022-12-29T21:40:43.530Z,99626.09
2022-12-29T21:45:49.829Z,99647.53
2022-12-29T21:51:12.464Z,99646.50
2022-12-29T21:56:19.284Z,99647.84
2022-12-29T22:01:39.588Z,99666.78
2022-12-29T22:07:00.338Z,99671.28
2022-12-29T22:12:20.658Z,99678.50
2022-12-29T22:17:27.835Z,99690.38
2022-12-29T22:22:30.474Z,99696.56
2022-12-29T22:27:32.115Z,99699.56
2022-12-29T22:32:34.231Z,99700.75
2022-12-29T22:37:37.405Z,99698.25
2022-12-29T22:42:39.393Z,99707.28
2022-12-29T22:47:41.014Z,99712.13
2022-12-29T22:52:42.648Z,99703.09
2022-12-29T22:57:44.358Z,99702.91
2022-12-29T23:02:46.199Z,99703.44
2022-12-29T23:07:47.871Z,99707.09
2022-12-29T23:12:49.493Z,99725.50
2022-12-29T23:17:51.069Z,99729.19
2022-12-29T23:22:52.700Z,99719.66
2022-12-29T23:27:54.350Z,99709.78
2022-12-29T23:32:56.055Z,99723.03
2022-12-29T23:37:57.926Z,99717.16
2022-12-29T23:42:59.483Z,99704.25
2022-12-29T23:48:01.130Z,99728.19
2022-12-29T23:53:02.720Z,99738.06
2022-12-29T23:58:04.281Z,99731.88
